Terminal Aerodrome Forecast
Issued by NWS

Home | Current Version | Previous Version | Text Only | Print | Product List | Glossary On
Versions: 1 2 3 4 5 6 7 8 9 10 11 12 13
000
FTUS45 KPSR 252320
TAFBLH
TAF
KBLH 252320Z 2600/2624 16005KT P6SM FEW250
     FM260200 23006KT P6SM FEW250
     FM260900 VRB04KT P6SM FEW250
      TEMPO 2611/2615 34005KT
     FM261800 18010KT P6SM SCT250=

USA.gov is the U.S. government's official web portal to all federal, state and local government web resources and services.